Time;durP1;ratioP1;P1;durP2;ratioP2;P2;SDS_P1;SDS_P2;PMS_P1;PMS_P2;Temp;Humidity;BMP_temperature;BMP_pressure;BME280_temperature;BME280_humidity;BME280_pressure;Samples;Min_cycle;Max_cycle;Signal;HPM_P1;HPM_P2
2023/09/02 00:00:22;;;;;;;2.28;1.45;;;;;;;;;;5098478;28;20032;-86
2023/09/02 00:02:48;;;;;;;2.60;1.30;;;;;;;;;;5078029;28;20079;-86
2023/09/02 00:05:13;;;;;;;2.00;1.30;;;;;;;;;;5077995;28;20040;-86
2023/09/02 00:07:39;;;;;;;2.33;1.40;;;;;;;;;;5075208;28;20081;-86
2023/09/02 00:10:05;;;;;;;2.28;1.33;;;;;;;;;;5079490;28;20520;-86
2023/09/02 00:12:30;;;;;;;3.47;1.30;;;;;;;;;;5083935;28;20040;-86
2023/09/02 00:14:56;;;;;;;2.70;1.20;;;;;;;;;;5078312;28;20039;-86
2023/09/02 00:17:21;;;;;;;2.72;1.38;;;;;;;;;;5075539;28;20028;-86
2023/09/02 00:19:47;;;;;;;2.83;1.48;;;;;;;;;;5077296;28;20032;-85
2023/09/02 00:22:12;;;;;;;4.38;1.30;;;;;;;;;;5086089;28;20035;-86
2023/09/02 00:24:38;;;;;;;4.28;1.33;;;;;;;;;;5082131;28;20036;-85
2023/09/02 00:27:05;;;;;;;3.17;1.38;;;;;;;;;;5077569;28;20036;-85
2023/09/02 00:29:30;;;;;;;2.65;1.33;;;;;;;;;;5089337;28;20115;-85
2023/09/02 00:31:55;;;;;;;3.40;1.42;;;;;;;;;;5089325;28;20458;-85
2023/09/02 00:34:21;;;;;;;1.92;1.30;;;;;;;;;;5088710;28;20043;-85
2023/09/02 00:36:46;;;;;;;3.83;1.40;;;;;;;;;;5090922;28;20128;-85
2023/09/02 00:39:12;;;;;;;2.70;1.30;;;;;;;;;;5090224;28;20039;-85
2023/09/02 00:41:43;;;;;;;2.13;1.40;;;;;;;;;;5074783;28;20048;-84
2023/09/02 00:44:08;;;;;;;2.38;1.40;;;;;;;;;;5096280;28;20506;-85
2023/09/02 00:46:34;;;;;;;1.95;1.30;;;;;;;;;;5102296;28;20111;-85
2023/09/02 00:49:00;;;;;;;2.58;1.48;;;;;;;;;;5086556;28;20036;-85
2023/09/02 00:51:27;;;;;;;4.07;1.20;;;;;;;;;;5079915;28;20036;-84
2023/09/02 00:53:52;;;;;;;1.92;1.20;;;;;;;;;;5099412;28;20121;-85
2023/09/02 00:56:18;;;;;;;2.00;1.33;;;;;;;;;;5090662;28;20037;-85
2023/09/02 00:58:44;;;;;;;2.15;1.40;;;;;;;;;;5092315;28;20102;-85
2023/09/02 01:01:10;;;;;;;1.90;1.30;;;;;;;;;;5080409;28;20498;-85
2023/09/02 01:03:38;;;;;;;3.03;1.20;;;;;;;;;;5081400;28;20111;-85
2023/09/02 01:06:05;;;;;;;3.10;1.20;;;;;;;;;;5081326;28;20040;-85
2023/09/02 01:08:31;;;;;;;2.60;1.48;;;;;;;;;;5091400;28;20035;-85
2023/09/02 01:11:00;;;;;;;3.80;1.40;;;;;;;;;;5081408;28;20477;-84
2023/09/02 01:13:27;;;;;;;2.45;1.42;;;;;;;;;;5079378;28;20044;-85
2023/09/02 01:15:55;;;;;;;3.28;1.65;;;;;;;;;;5084119;28;20119;-85
2023/09/02 01:18:24;;;;;;;2.10;1.30;;;;;;;;;;5081512;28;20032;-84
2023/09/02 01:21:00;;;;;;;5.57;1.50;;;;;;;;;;5070868;28;20489;-84
2023/09/02 01:23:42;;;;;;;3.13;1.63;;;;;;;;;;5092353;28;20437;-85
2023/09/02 01:26:24;;;;;;;2.80;1.23;;;;;;;;;;5091431;28;20031;-85
2023/09/02 01:28:55;;;;;;;1.48;1.15;;;;;;;;;;5086115;28;20539;-84
2023/09/02 01:31:24;;;;;;;2.80;1.40;;;;;;;;;;5089419;28;20043;-85
2023/09/02 01:33:53;;;;;;;2.45;1.25;;;;;;;;;;5081908;28;20095;-85
2023/09/02 01:36:21;;;;;;;4.63;1.50;;;;;;;;;;5081417;28;20508;-85
2023/09/02 01:38:47;;;;;;;2.88;1.40;;;;;;;;;;5077703;28;20094;-85
2023/09/02 01:41:15;;;;;;;2.67;1.15;;;;;;;;;;5087118;28;20070;-85
2023/09/02 01:43:44;;;;;;;3.35;1.40;;;;;;;;;;5093033;28;20049;-85
2023/09/02 01:46:10;;;;;;;3.00;1.25;;;;;;;;;;5084193;28;20097;-84
2023/09/02 01:48:37;;;;;;;2.25;1.40;;;;;;;;;;5076687;28;20021;-85
2023/09/02 01:51:03;;;;;;;3.17;1.50;;;;;;;;;;5094894;28;20052;-85
2023/09/02 01:53:29;;;;;;;2.25;1.40;;;;;;;;;;5091753;28;20028;-85
2023/09/02 01:55:57;;;;;;;1.88;1.40;;;;;;;;;;5087531;28;20482;-85
2023/09/02 01:58:23;;;;;;;2.13;1.50;;;;;;;;;;5078076;28;20048;-85
2023/09/02 02:00:48;;;;;;;1.77;1.30;;;;;;;;;;5080639;28;20036;-85
2023/09/02 02:03:28;;;;;;;2.40;1.58;;;;;;;;;;5091601;28;20046;-85
2023/09/02 02:05:54;;;;;;;1.75;1.42;;;;;;;;;;5083279;28;20056;-85
2023/09/02 02:08:27;;;;;;;4.55;1.42;;;;;;;;;;5078008;28;20036;-84
2023/09/02 02:10:56;;;;;;;3.38;1.45;;;;;;;;;;5095108;28;20486;-85
2023/09/02 02:13:22;;;;;;;2.67;1.67;;;;;;;;;;5082714;28;20039;-85
2023/09/02 02:15:48;;;;;;;3.72;1.40;;;;;;;;;;5085769;28;20038;-85
2023/09/02 02:18:13;;;;;;;1.73;1.40;;;;;;;;;;5095934;28;20039;-85
2023/09/02 02:20:57;;;;;;;2.65;1.40;;;;;;;;;;5080284;28;20027;-85
2023/09/02 02:23:22;;;;;;;3.08;1.48;;;;;;;;;;5079503;28;20410;-85
2023/09/02 02:25:48;;;;;;;3.22;1.80;;;;;;;;;;5081315;28;20040;-85
2023/09/02 02:28:13;;;;;;;2.22;1.33;;;;;;;;;;5088223;28;20032;-85
2023/09/02 02:30:39;;;;;;;3.28;1.60;;;;;;;;;;5082019;28;20050;-85
2023/09/02 02:33:05;;;;;;;4.28;1.73;;;;;;;;;;5077944;28;20047;-84
2023/09/02 02:35:34;;;;;;;2.00;1.60;;;;;;;;;;5084919;28;20032;-84
2023/09/02 02:37:59;;;;;;;4.35;1.85;;;;;;;;;;5086067;28;20035;-84
2023/09/02 02:40:26;;;;;;;4.13;1.52;;;;;;;;;;5090753;28;20032;-84
2023/09/02 02:42:51;;;;;;;3.80;1.90;;;;;;;;;;5075904;28;20119;-85
2023/09/02 02:45:17;;;;;;;3.22;1.77;;;;;;;;;;5078968;28;20150;-84
2023/09/02 02:47:42;;;;;;;4.65;1.60;;;;;;;;;;5077016;28;20037;-85
2023/09/02 02:50:08;;;;;;;1.98;1.60;;;;;;;;;;5081410;28;20051;-85
2023/09/02 02:52:35;;;;;;;3.33;1.60;;;;;;;;;;5074409;28;20501;-84
2023/09/02 02:55:00;;;;;;;2.58;1.80;;;;;;;;;;5084062;28;20048;-84
2023/09/02 02:57:26;;;;;;;6.25;1.60;;;;;;;;;;5085596;28;20253;-84
2023/09/02 02:59:51;;;;;;;2.38;1.60;;;;;;;;;;5099504;28;20509;-84
2023/09/02 03:02:17;;;;;;;2.88;1.60;;;;;;;;;;5089521;28;20091;-85
2023/09/02 03:04:47;;;;;;;2.97;1.45;;;;;;;;;;5081777;28;20035;-85
2023/09/02 03:07:16;;;;;;;3.85;1.52;;;;;;;;;;5089345;28;20077;-85
2023/09/02 03:09:42;;;;;;;2.38;1.60;;;;;;;;;;5076188;28;20036;-85
2023/09/02 03:12:08;;;;;;;2.40;1.60;;;;;;;;;;5081822;28;20405;-84
2023/09/02 03:14:34;;;;;;;3.03;1.70;;;;;;;;;;5084433;28;20028;-84
2023/09/02 03:17:00;;;;;;;2.95;1.65;;;;;;;;;;5085075;28;20036;-84
2023/09/02 03:19:26;;;;;;;2.95;1.77;;;;;;;;;;5076571;28;20401;-85
2023/09/02 03:21:52;;;;;;;3.83;1.90;;;;;;;;;;5084042;28;20199;-85
2023/09/02 03:24:17;;;;;;;2.17;1.50;;;;;;;;;;5090136;28;20124;-85
2023/09/02 03:26:43;;;;;;;6.45;1.80;;;;;;;;;;5085529;28;20305;-85
2023/09/02 03:29:08;;;;;;;5.15;1.60;;;;;;;;;;5084365;28;20040;-84
2023/09/02 03:31:36;;;;;;;4.00;1.70;;;;;;;;;;5086975;28;20040;-85
2023/09/02 03:34:02;;;;;;;2.90;1.67;;;;;;;;;;5089700;28;20035;-85
2023/09/02 03:36:28;;;;;;;4.70;1.55;;;;;;;;;;5090798;28;20044;-85
2023/09/02 03:38:54;;;;;;;3.25;1.70;;;;;;;;;;5079381;28;20032;-85
2023/09/02 03:41:20;;;;;;;2.22;1.58;;;;;;;;;;5077472;28;20039;-85
2023/09/02 03:43:46;;;;;;;4.13;1.52;;;;;;;;;;5061183;28;20028;-85
2023/09/02 03:46:13;;;;;;;3.47;1.70;;;;;;;;;;5089656;28;20119;-85
2023/09/02 03:48:40;;;;;;;3.63;1.70;;;;;;;;;;5086972;28;20108;-84
2023/09/02 03:51:16;;;;;;;2.80;1.63;;;;;;;;;;5081867;28;20036;-84
2023/09/02 03:53:46;;;;;;;5.68;1.98;;;;;;;;;;5091447;28;20055;-84
2023/09/02 03:56:14;;;;;;;6.53;1.90;;;;;;;;;;5079258;28;20099;-85
2023/09/02 03:58:39;;;;;;;3.83;1.60;;;;;;;;;;5081403;28;20437;-86
2023/09/02 04:01:06;;;;;;;3.15;1.70;;;;;;;;;;5081987;28;20032;-84
2023/09/02 04:03:36;;;;;;;2.35;1.50;;;;;;;;;;5077818;28;20034;-86
2023/09/02 04:06:04;;;;;;;2.22;1.60;;;;;;;;;;5091998;28;20036;-85
2023/09/02 04:08:39;;;;;;;3.97;1.70;;;;;;;;;;5089591;28;20027;-86
2023/09/02 04:11:04;;;;;;;3.47;1.70;;;;;;;;;;5082708;28;20036;-86
2023/09/02 04:13:30;;;;;;;2.92;1.60;;;;;;;;;;5087276;28;20032;-85
2023/09/02 04:16:00;;;;;;;4.65;1.90;;;;;;;;;;5093760;28;20432;-85
2023/09/02 04:18:28;;;;;;;4.07;1.70;;;;;;;;;;5087449;28;20039;-85
2023/09/02 04:20:54;;;;;;;5.50;1.77;;;;;;;;;;5088718;28;20020;-85
2023/09/02 04:23:21;;;;;;;3.80;1.80;;;;;;;;;;5090377;28;20032;-85
2023/09/02 04:25:50;;;;;;;3.05;1.77;;;;;;;;;;5084541;28;20102;-85
2023/09/02 04:28:18;;;;;;;3.67;1.60;;;;;;;;;;5087613;28;20503;-85
2023/09/02 04:30:44;;;;;;;3.15;1.80;;;;;;;;;;5088772;28;20031;-85
2023/09/02 04:33:11;;;;;;;2.78;1.65;;;;;;;;;;5086924;28;20044;-85
2023/09/02 04:35:38;;;;;;;2.85;1.70;;;;;;;;;;5080785;28;20552;-84
2023/09/02 04:38:05;;;;;;;2.58;1.70;;;;;;;;;;5086287;28;20103;-85
2023/09/02 04:40:38;;;;;;;6.00;1.73;;;;;;;;;;5085477;28;20024;-85
2023/09/02 04:43:05;;;;;;;3.28;1.88;;;;;;;;;;5085045;28;20514;-85
2023/09/02 04:45:35;;;;;;;7.07;1.45;;;;;;;;;;5076896;28;20034;-85
2023/09/02 04:48:05;;;;;;;2.60;1.70;;;;;;;;;;5082671;28;20044;-84
2023/09/02 04:50:35;;;;;;;5.05;1.83;;;;;;;;;;5077420;28;20049;-84
2023/09/02 04:53:02;;;;;;;2.65;1.67;;;;;;;;;;5087867;28;20032;-85
2023/09/02 04:55:31;;;;;;;4.78;1.88;;;;;;;;;;5083813;28;20039;-85
2023/09/02 04:57:57;;;;;;;4.28;1.90;;;;;;;;;;5081950;28;20035;-85
2023/09/02 05:00:25;;;;;;;3.00;1.85;;;;;;;;;;5089057;28;20028;-84
2023/09/02 05:02:51;;;;;;;2.45;1.80;;;;;;;;;;5084688;28;20032;-84
2023/09/02 05:05:18;;;;;;;4.60;2.10;;;;;;;;;;5086518;28;20039;-85
2023/09/02 05:07:44;;;;;;;3.78;1.80;;;;;;;;;;5082285;28;20051;-85
2023/09/02 05:10:13;;;;;;;3.63;1.70;;;;;;;;;;5088771;28;20112;-84
2023/09/02 05:12:40;;;;;;;3.38;1.80;;;;;;;;;;5088402;28;20037;-85
2023/09/02 05:15:07;;;;;;;3.40;1.88;;;;;;;;;;5076477;28;20103;-85
2023/09/02 05:17:34;;;;;;;3.30;1.60;;;;;;;;;;5092530;28;20506;-85
2023/09/02 05:20:00;;;;;;;2.30;1.70;;;;;;;;;;5085832;28;20033;-85
2023/09/02 05:22:26;;;;;;;2.65;1.80;;;;;;;;;;5081058;28;20027;-85
2023/09/02 05:24:52;;;;;;;2.72;1.60;;;;;;;;;;5089704;28;20111;-84
2023/09/02 05:27:20;;;;;;;6.32;2.10;;;;;;;;;;5094892;28;20119;-84
2023/09/02 05:29:45;;;;;;;3.08;2.00;;;;;;;;;;5089794;28;20032;-84
2023/09/02 05:32:12;;;;;;;4.13;1.85;;;;;;;;;;5100847;28;20028;-85
2023/09/02 05:34:38;;;;;;;6.28;1.80;;;;;;;;;;5081138;28;20109;-85
2023/09/02 05:37:03;;;;;;;3.78;1.80;;;;;;;;;;5089841;28;20066;-85
2023/09/02 05:39:29;;;;;;;3.28;1.83;;;;;;;;;;5090226;28;20761;-84
2023/09/02 05:41:54;;;;;;;2.78;1.70;;;;;;;;;;5088390;28;20120;-84
2023/09/02 05:44:20;;;;;;;2.60;1.77;;;;;;;;;;5082549;28;20040;-84
2023/09/02 05:46:45;;;;;;;6.47;1.80;;;;;;;;;;5084074;28;20032;-83
2023/09/02 05:49:12;;;;;;;5.93;1.60;;;;;;;;;;5078165;28;20170;-84
2023/09/02 05:51:38;;;;;;;3.40;1.65;;;;;;;;;;5080856;28;20471;-85
2023/09/02 05:54:04;;;;;;;3.05;1.70;;;;;;;;;;5078240;28;20052;-85
2023/09/02 05:56:31;;;;;;;3.08;1.65;;;;;;;;;;5076942;28;20104;-85
2023/09/02 05:58:57;;;;;;;3.10;1.90;;;;;;;;;;5076764;28;20037;-85
2023/09/02 06:01:22;;;;;;;3.67;1.70;;;;;;;;;;5078920;28;20039;-85
2023/09/02 06:03:48;;;;;;;3.85;1.75;;;;;;;;;;5085795;28;20375;-85
2023/09/02 06:06:13;;;;;;;3.75;1.80;;;;;;;;;;5085979;28;20036;-85
2023/09/02 06:08:39;;;;;;;2.33;1.70;;;;;;;;;;5080853;28;20078;-85
2023/09/02 06:11:05;;;;;;;4.57;1.88;;;;;;;;;;5081177;28;20032;-86
2023/09/02 06:13:31;;;;;;;2.50;1.80;;;;;;;;;;5091554;28;20477;-86
2023/09/02 06:16:02;;;;;;;2.70;1.70;;;;;;;;;;5092552;28;20039;-86
2023/09/02 06:18:28;;;;;;;3.00;1.70;;;;;;;;;;5087433;28;20140;-85
2023/09/02 06:20:54;;;;;;;5.10;1.77;;;;;;;;;;5081935;28;20032;-86
2023/09/02 06:23:19;;;;;;;3.70;1.70;;;;;;;;;;5080623;28;20454;-86
2023/09/02 06:25:54;;;;;;;3.05;1.70;;;;;;;;;;5078585;28;20043;-86
2023/09/02 06:28:20;;;;;;;2.70;2.00;;;;;;;;;;5078436;28;20040;-86
2023/09/02 06:30:45;;;;;;;2.15;1.50;;;;;;;;;;5082746;28;20052;-84
2023/09/02 06:33:10;;;;;;;4.90;1.90;;;;;;;;;;5078354;28;20032;-85
2023/09/02 06:35:36;;;;;;;3.13;1.88;;;;;;;;;;5077861;28;20689;-84
2023/09/02 06:38:02;;;;;;;4.60;1.67;;;;;;;;;;5086236;28;20171;-85
2023/09/02 06:40:29;;;;;;;4.95;2.05;;;;;;;;;;5082783;28;20603;-86
2023/09/02 06:42:55;;;;;;;2.70;1.73;;;;;;;;;;5078350;28;20040;-85
2023/09/02 06:45:20;;;;;;;2.30;1.70;;;;;;;;;;5078373;28;20031;-85
2023/09/02 06:47:45;;;;;;;3.47;1.80;;;;;;;;;;5077101;28;20040;-86
2023/09/02 06:50:11;;;;;;;2.53;1.70;;;;;;;;;;5081809;28;20044;-86
2023/09/02 06:52:36;;;;;;;7.82;1.88;;;;;;;;;;5086551;28;20028;-85
2023/09/02 06:55:03;;;;;;;2.40;1.70;;;;;;;;;;5077776;28;20720;-86
2023/09/02 06:57:29;;;;;;;2.35;1.80;;;;;;;;;;5074611;28;20074;-83
2023/09/02 06:59:54;;;;;;;4.53;1.73;;;;;;;;;;5079476;28;20031;-84
2023/09/02 07:02:20;;;;;;;2.63;1.88;;;;;;;;;;5082031;28;20064;-83
2023/09/02 07:04:48;;;;;;;4.85;2.17;;;;;;;;;;5079400;28;20471;-82
2023/09/02 07:07:14;;;;;;;3.60;2.30;;;;;;;;;;5075135;28;20074;-83
2023/09/02 07:09:39;;;;;;;5.38;1.85;;;;;;;;;;5077845;28;20075;-82
2023/09/02 07:12:05;;;;;;;7.90;2.25;;;;;;;;;;5089309;28;20038;-82
2023/09/02 07:14:30;;;;;;;4.43;1.98;;;;;;;;;;5081880;28;20549;-83
2023/09/02 07:16:56;;;;;;;2.95;2.05;;;;;;;;;;5076284;28;20037;-83
2023/09/02 07:19:21;;;;;;;4.72;2.10;;;;;;;;;;5077024;28;20025;-82
2023/09/02 07:21:47;;;;;;;4.47;1.98;;;;;;;;;;5076744;28;20030;-87
2023/09/02 07:24:13;;;;;;;4.47;2.03;;;;;;;;;;5080087;28;20043;-85
2023/09/02 07:26:39;;;;;;;4.28;1.73;;;;;;;;;;5084579;28;20029;-84
2023/09/02 07:29:04;;;;;;;6.03;2.22;;;;;;;;;;5075682;28;20036;-84
2023/09/02 07:31:30;;;;;;;3.10;1.88;;;;;;;;;;5080833;28;20056;-83
2023/09/02 07:33:55;;;;;;;2.90;1.75;;;;;;;;;;5087157;28;20115;-84
2023/09/02 07:36:21;;;;;;;6.05;1.80;;;;;;;;;;5100188;28;20456;-84
2023/09/02 07:38:46;;;;;;;2.53;1.75;;;;;;;;;;5078935;28;20067;-81
2023/09/02 07:41:12;;;;;;;2.83;1.95;;;;;;;;;;5074846;28;20364;-85
2023/09/02 07:43:38;;;;;;;2.28;1.85;;;;;;;;;;5098972;28;20033;-83
2023/09/02 07:46:03;;;;;;;3.60;1.90;;;;;;;;;;5087356;28;20451;-83
2023/09/02 07:48:29;;;;;;;3.90;2.00;;;;;;;;;;5079339;28;20032;-84
2023/09/02 07:50:54;;;;;;;2.58;1.80;;;;;;;;;;5087854;28;20071;-83
2023/09/02 07:53:20;;;;;;;2.42;1.63;;;;;;;;;;5073971;28;20123;-83
2023/09/02 07:55:45;;;;;;;19.42;3.42;;;;;;;;;;5075748;28;20064;-82
2023/09/02 07:58:11;;;;;;;11.27;2.40;;;;;;;;;;5079903;28;20529;-82
2023/09/02 08:00:37;;;;;;;3.33;1.60;;;;;;;;;;5081271;28;20440;-82
2023/09/02 08:03:06;;;;;;;4.40;1.40;;;;;;;;;;5075803;28;20086;-82
2023/09/02 08:05:31;;;;;;;4.30;1.50;;;;;;;;;;5090532;28;20047;-83
2023/09/02 08:07:57;;;;;;;3.15;1.60;;;;;;;;;;5079753;28;20047;-83
2023/09/02 08:10:22;;;;;;;5.05;1.58;;;;;;;;;;5085520;28;20046;-86
2023/09/02 08:12:48;;;;;;;2.65;1.55;;;;;;;;;;5080702;28;20040;-86
2023/09/02 08:15:14;;;;;;;2.33;1.25;;;;;;;;;;5077431;28;20032;-84
2023/09/02 08:17:41;;;;;;;5.00;1.58;;;;;;;;;;5088132;28;20071;-84
2023/09/02 08:20:08;;;;;;;2.35;1.30;;;;;;;;;;5090214;28;20111;-84
2023/09/02 08:22:34;;;;;;;3.42;1.40;;;;;;;;;;5088647;28;20028;-83
2023/09/02 08:24:59;;;;;;;2.65;1.50;;;;;;;;;;5092256;28;20111;-83
2023/09/02 08:27:25;;;;;;;2.47;1.40;;;;;;;;;;5079964;28;20068;-83
2023/09/02 08:29:51;;;;;;;2.60;1.40;;;;;;;;;;5089341;28;20032;-85
2023/09/02 08:32:17;;;;;;;3.97;1.35;;;;;;;;;;5080801;28;20482;-84
2023/09/02 08:34:46;;;;;;;2.50;1.20;;;;;;;;;;5097798;28;20039;-83
2023/09/02 08:37:11;;;;;;;2.65;1.30;;;;;;;;;;5092511;28;20226;-85
2023/09/02 08:39:37;;;;;;;3.00;1.52;;;;;;;;;;5074051;28;20137;-85
2023/09/02 08:42:04;;;;;;;2.28;1.60;;;;;;;;;;5097099;28;20111;-84
2023/09/02 08:44:35;;;;;;;1.77;1.30;;;;;;;;;;5084152;28;20052;-84
2023/09/02 08:47:02;;;;;;;3.10;1.58;;;;;;;;;;5085285;28;20421;-84
2023/09/02 08:49:28;;;;;;;3.80;1.38;;;;;;;;;;5077595;28;20043;-84
2023/09/02 08:51:54;;;;;;;3.53;1.48;;;;;;;;;;5076206;28;20044;-84
2023/09/02 08:54:21;;;;;;;2.53;1.30;;;;;;;;;;5093144;28;20032;-84
2023/09/02 08:56:48;;;;;;;3.42;1.40;;;;;;;;;;5083458;28;20035;-85
2023/09/02 08:59:13;;;;;;;3.28;1.50;;;;;;;;;;5086343;28;20474;-85
2023/09/02 09:01:43;;;;;;;4.03;1.70;;;;;;;;;;5076501;28;20037;-85
2023/09/02 09:04:10;;;;;;;3.47;1.63;;;;;;;;;;5098618;28;20036;-85
2023/09/02 09:06:37;;;;;;;3.78;1.45;;;;;;;;;;5093297;28;20388;-83
2023/09/02 09:09:03;;;;;;;3.28;1.40;;;;;;;;;;5094418;28;20039;-86
2023/09/02 09:11:41;;;;;;;2.15;1.40;;;;;;;;;;5083391;28;20081;-84
2023/09/02 09:14:19;;;;;;;1.85;1.35;;;;;;;;;;5082418;28;20056;-85
2023/09/02 09:16:45;;;;;;;2.33;1.30;;;;;;;;;;5090314;28;20048;-84
2023/09/02 09:19:11;;;;;;;1.90;1.40;;;;;;;;;;5088881;28;20024;-84
2023/09/02 09:21:36;;;;;;;2.55;1.50;;;;;;;;;;5082071;28;20113;-85
2023/09/02 09:24:02;;;;;;;2.00;1.38;;;;;;;;;;5080740;28;20386;-85
2023/09/02 09:26:28;;;;;;;2.45;1.35;;;;;;;;;;5076946;28;20040;-84
2023/09/02 09:28:58;;;;;;;3.40;1.40;;;;;;;;;;5085320;28;20078;-83
2023/09/02 09:31:25;;;;;;;2.13;1.48;;;;;;;;;;5086541;28;20132;-83
2023/09/02 09:33:55;;;;;;;3.28;1.50;;;;;;;;;;5092977;28;20066;-83
2023/09/02 09:36:21;;;;;;;2.97;1.38;;;;;;;;;;5083497;28;20379;-83
2023/09/02 09:38:55;;;;;;;1.80;1.40;;;;;;;;;;5078815;28;20119;-82
2023/09/02 09:41:22;;;;;;;2.97;1.58;;;;;;;;;;5080860;28;20039;-82
2023/09/02 09:44:06;;;;;;;2.85;1.77;;;;;;;;;;5086259;28;20036;-84
2023/09/02 09:46:33;;;;;;;2.08;1.48;;;;;;;;;;5082374;28;20036;-84
2023/09/02 09:49:01;;;;;;;4.15;1.73;;;;;;;;;;5078459;28;20062;-85
2023/09/02 09:51:27;;;;;;;2.47;1.55;;;;;;;;;;5094272;28;20107;-84
2023/09/02 09:53:53;;;;;;;2.33;1.52;;;;;;;;;;5103185;28;20036;-84
2023/09/02 09:56:19;;;;;;;5.43;1.50;;;;;;;;;;5084176;28;20035;-83
2023/09/02 09:58:48;;;;;;;3.92;1.70;;;;;;;;;;5080740;28;20393;-83
2023/09/02 10:01:24;;;;;;;3.22;1.70;;;;;;;;;;5077120;28;20090;-83
2023/09/02 10:03:51;;;;;;;2.88;1.70;;;;;;;;;;5089511;28;20590;-82
2023/09/02 10:06:18;;;;;;;3.92;1.73;;;;;;;;;;5089020;28;20123;-82
2023/09/02 10:08:52;;;;;;;3.70;1.80;;;;;;;;;;5084717;28;20378;-84
2023/09/02 10:11:20;;;;;;;3.08;1.70;;;;;;;;;;5079851;28;20455;-83
2023/09/02 10:13:46;;;;;;;2.40;1.60;;;;;;;;;;5098505;28;20402;-84
2023/09/02 10:16:13;;;;;;;3.55;1.70;;;;;;;;;;5083166;28;20032;-85
2023/09/02 10:18:38;;;;;;;5.68;1.63;;;;;;;;;;5085429;28;20036;-85
2023/09/02 10:21:04;;;;;;;2.88;1.77;;;;;;;;;;5091303;28;20091;-85
2023/09/02 10:23:30;;;;;;;2.17;1.60;;;;;;;;;;5083471;28;20107;-85
2023/09/02 10:26:05;;;;;;;3.03;1.50;;;;;;;;;;5080534;28;20051;-83
2023/09/02 10:28:40;;;;;;;3.13;1.75;;;;;;;;;;5081352;28;20071;-84
2023/09/02 10:31:30;;;;;;;2.42;1.52;;;;;;;;;;5079344;28;20036;-84
2023/09/02 10:34:10;;;;;;;2.17;1.55;;;;;;;;;;5083878;28;20032;-85
2023/09/02 10:36:41;;;;;;;2.42;1.50;;;;;;;;;;5086744;28;20040;-84
2023/09/02 10:39:13;;;;;;;2.78;1.70;;;;;;;;;;5100015;28;20381;-83
2023/09/02 10:41:40;;;;;;;2.22;1.63;;;;;;;;;;5094995;28;20105;-85
2023/09/02 10:44:06;;;;;;;2.92;1.70;;;;;;;;;;5089210;28;20046;-85
2023/09/02 10:46:32;;;;;;;5.13;1.80;;;;;;;;;;5085207;28;20040;-85
2023/09/02 10:48:59;;;;;;;3.47;1.70;;;;;;;;;;5082402;28;20143;-85
2023/09/02 10:51:25;;;;;;;3.97;2.00;;;;;;;;;;5084018;28;20035;-85
2023/09/02 10:53:50;;;;;;;3.30;1.70;;;;;;;;;;5087683;28;20135;-85
2023/09/02 10:56:33;;;;;;;2.70;1.48;;;;;;;;;;5084234;28;20438;-84
2023/09/02 10:59:00;;;;;;;2.03;1.50;;;;;;;;;;5078603;28;20033;-85
2023/09/02 11:01:28;;;;;;;2.20;1.50;;;;;;;;;;5081411;28;20143;-84
2023/09/02 11:03:54;;;;;;;2.63;1.60;;;;;;;;;;5090769;28;20043;-84
2023/09/02 11:06:20;;;;;;;3.58;1.60;;;;;;;;;;5087150;28;20111;-84
2023/09/02 11:08:49;;;;;;;2.08;1.55;;;;;;;;;;5097599;28;20039;-83
2023/09/02 11:11:15;;;;;;;3.08;1.50;;;;;;;;;;5078926;28;20048;-84
2023/09/02 11:14:06;;;;;;;3.85;1.60;;;;;;;;;;5108942;28;20045;-85
2023/09/02 11:16:31;;;;;;;3.42;1.73;;;;;;;;;;5087757;28;20111;-83
2023/09/02 11:18:58;;;;;;;2.70;1.60;;;;;;;;;;5081366;28;20056;-85
2023/09/02 11:21:42;;;;;;;3.00;1.58;;;;;;;;;;5079519;28;20028;-85
2023/09/02 11:24:17;;;;;;;2.72;1.75;;;;;;;;;;5080113;28;20052;-85
2023/09/02 11:26:53;;;;;;;3.03;1.50;;;;;;;;;;5080336;28;20063;-85
2023/09/02 11:29:25;;;;;;;3.08;1.70;;;;;;;;;;5080358;28;20029;-85
2023/09/02 11:32:04;;;;;;;4.20;1.80;;;;;;;;;;5086968;28;20109;-85
2023/09/02 11:34:30;;;;;;;6.53;1.52;;;;;;;;;;5076824;28;20496;-85
2023/09/02 11:37:00;;;;;;;5.05;2.00;;;;;;;;;;5077794;28;20028;-87
2023/09/02 11:39:27;;;;;;;2.67;1.60;;;;;;;;;;5084997;28;20124;-88
2023/09/02 11:42:09;;;;;;;2.95;1.60;;;;;;;;;;5084231;28;20047;-86
2023/09/02 11:44:35;;;;;;;2.40;1.55;;;;;;;;;;5081800;28;20071;-87
2023/09/02 11:47:01;;;;;;;3.58;1.50;;;;;;;;;;5081006;28;20385;-86
2023/09/02 11:49:27;;;;;;;2.38;1.55;;;;;;;;;;5083880;28;20089;-86
2023/09/02 11:51:53;;;;;;;2.00;1.60;;;;;;;;;;5105501;28;20115;-86
2023/09/02 11:54:19;;;;;;;2.35;1.73;;;;;;;;;;5087403;28;20028;-87
2023/09/02 11:56:55;;;;;;;1.83;1.50;;;;;;;;;;5098127;28;20127;-88
2023/09/02 11:59:22;;;;;;;2.08;1.40;;;;;;;;;;5081214;28;20023;-87
2023/09/02 12:02:08;;;;;;;2.28;1.70;;;;;;;;;;5092358;28;20017;-86
2023/09/02 12:04:37;;;;;;;4.20;1.63;;;;;;;;;;5105324;28;20028;-88
2023/09/02 12:07:04;;;;;;;4.53;1.65;;;;;;;;;;5084810;28;20036;-88
2023/09/02 12:09:30;;;;;;;2.15;1.60;;;;;;;;;;5079276;28;20103;-88
2023/09/02 12:11:57;;;;;;;2.72;1.58;;;;;;;;;;5093122;28;20422;-87
2023/09/02 12:14:22;;;;;;;2.42;1.65;;;;;;;;;;5094437;28;20028;-86
2023/09/02 12:16:48;;;;;;;2.97;1.67;;;;;;;;;;5091558;28;20173;-86
2023/09/02 12:19:14;;;;;;;1.45;1.33;;;;;;;;;;5092626;28;20029;-87
2023/09/02 12:21:40;;;;;;;3.63;1.58;;;;;;;;;;5088828;28;20040;-87
2023/09/02 12:24:06;;;;;;;1.85;1.50;;;;;;;;;;5083763;28;20020;-88
2023/09/02 12:26:31;;;;;;;2.42;1.60;;;;;;;;;;5085889;28;20535;-88
2023/09/02 12:28:57;;;;;;;2.20;1.55;;;;;;;;;;5090158;28;20056;-87
2023/09/02 12:31:22;;;;;;;2.70;1.60;;;;;;;;;;5086376;28;20040;-86
2023/09/02 12:33:52;;;;;;;2.42;1.60;;;;;;;;;;5080815;28;20024;-86
2023/09/02 12:36:18;;;;;;;3.15;1.70;;;;;;;;;;5083610;28;20081;-86
2023/09/02 12:38:52;;;;;;;2.67;1.60;;;;;;;;;;5087677;28;20036;-87
2023/09/02 12:41:18;;;;;;;2.88;1.60;;;;;;;;;;5086409;28;20036;-86
2023/09/02 12:43:43;;;;;;;3.33;1.63;;;;;;;;;;5088447;28;20035;-84
2023/09/02 12:46:09;;;;;;;3.05;1.85;;;;;;;;;;5099159;28;20040;-87
2023/09/02 12:48:35;;;;;;;3.17;1.40;;;;;;;;;;5102437;28;20147;-88
2023/09/02 12:51:00;;;;;;;2.65;1.75;;;;;;;;;;5091951;28;20036;-87
2023/09/02 12:53:26;;;;;;;2.33;1.70;;;;;;;;;;5089815;28;20044;-85
2023/09/02 12:55:54;;;;;;;3.17;1.80;;;;;;;;;;5086375;28;20088;-85
2023/09/02 12:58:20;;;;;;;2.92;1.60;;;;;;;;;;5089305;28;20033;-88
2023/09/02 13:00:45;;;;;;;3.15;1.70;;;;;;;;;;5106959;28;20027;-83
2023/09/02 13:03:11;;;;;;;3.30;1.70;;;;;;;;;;5091864;28;20036;-84
2023/09/02 13:05:37;;;;;;;2.88;1.63;;;;;;;;;;5101849;28;20056;-84
2023/09/02 13:08:03;;;;;;;4.80;1.80;;;;;;;;;;5081902;28;20040;-84
2023/09/02 13:10:28;;;;;;;4.70;1.80;;;;;;;;;;5095886;28;20029;-84
2023/09/02 13:12:54;;;;;;;3.10;1.73;;;;;;;;;;5095068;28;20046;-83
2023/09/02 13:15:22;;;;;;;2.47;1.80;;;;;;;;;;5090169;28;20032;-84
2023/09/02 13:17:48;;;;;;;3.22;1.60;;;;;;;;;;5081035;28;20024;-82
2023/09/02 13:20:16;;;;;;;2.72;1.92;;;;;;;;;;5080257;28;20043;-85
2023/09/02 13:22:45;;;;;;;2.70;1.52;;;;;;;;;;5078925;28;20036;-86
2023/09/02 13:25:10;;;;;;;2.28;1.50;;;;;;;;;;5083112;28;20074;-85
2023/09/02 13:27:37;;;;;;;2.58;1.70;;;;;;;;;;5086723;28;20491;-85
2023/09/02 13:30:04;;;;;;;2.38;1.65;;;;;;;;;;5079287;28;20024;-84
2023/09/02 13:32:31;;;;;;;2.95;1.90;;;;;;;;;;5079660;28;20086;-85
2023/09/02 13:35:15;;;;;;;2.47;1.75;;;;;;;;;;5086350;28;20032;-85
2023/09/02 13:37:46;;;;;;;2.65;1.85;;;;;;;;;;5080639;28;20032;-84
2023/09/02 13:40:15;;;;;;;2.40;1.85;;;;;;;;;;5083718;28;20094;-84
2023/09/02 13:42:42;;;;;;;3.63;1.88;;;;;;;;;;5080750;28;20095;-84
2023/09/02 13:45:13;;;;;;;3.08;1.92;;;;;;;;;;5089551;28;20366;-85
2023/09/02 13:47:45;;;;;;;3.35;1.83;;;;;;;;;;5090581;28;20034;-85
2023/09/02 13:50:11;;;;;;;2.42;1.80;;;;;;;;;;5098913;28;20028;-85
2023/09/02 13:52:37;;;;;;;2.25;1.60;;;;;;;;;;5086763;28;20040;-87
2023/09/02 13:55:03;;;;;;;3.92;1.90;;;;;;;;;;5076938;28;20041;-86
2023/09/02 13:57:29;;;;;;;3.40;1.80;;;;;;;;;;5085482;28;20032;-85
2023/09/02 13:59:57;;;;;;;4.40;1.80;;;;;;;;;;5083522;28;20085;-85
2023/09/02 14:02:25;;;;;;;4.72;1.77;;;;;;;;;;5084819;28;20012;-84
2023/09/02 14:04:52;;;;;;;2.63;1.70;;;;;;;;;;5079391;28;20033;-85
2023/09/02 14:07:18;;;;;;;4.22;2.05;;;;;;;;;;5076505;28;20024;-85
2023/09/02 14:09:44;;;;;;;4.72;2.10;;;;;;;;;;5086692;28;20034;-87
2023/09/02 14:12:12;;;;;;;5.13;1.98;;;;;;;;;;5088627;28;20093;-87
2023/09/02 14:14:38;;;;;;;3.33;1.92;;;;;;;;;;5085947;28;20051;-87
2023/09/02 14:17:04;;;;;;;4.07;2.00;;;;;;;;;;5086815;28;20354;-87
2023/09/02 14:19:29;;;;;;;6.30;1.90;;;;;;;;;;5092453;28;20028;-86
2023/09/02 14:21:54;;;;;;;5.47;2.00;;;;;;;;;;5087656;28;20093;-84
2023/09/02 14:24:20;;;;;;;4.80;2.28;;;;;;;;;;5089882;28;20020;-86
2023/09/02 14:26:45;;;;;;;5.20;2.05;;;;;;;;;;5087686;28;20016;-85
2023/09/02 14:29:11;;;;;;;6.70;2.20;;;;;;;;;;5079009;28;20476;-86
2023/09/02 14:31:36;;;;;;;3.45;1.80;;;;;;;;;;5086074;28;20436;-88
2023/09/02 14:34:02;;;;;;;4.53;1.88;;;;;;;;;;5087335;28;20047;-87
2023/09/02 14:36:27;;;;;;;4.75;1.90;;;;;;;;;;5087735;28;20086;-83
2023/09/02 14:38:53;;;;;;;3.22;1.90;;;;;;;;;;5087533;28;20054;-83
2023/09/02 14:41:18;;;;;;;2.35;1.60;;;;;;;;;;5079292;28;20082;-85
2023/09/02 14:43:49;;;;;;;3.15;1.90;;;;;;;;;;5078502;28;20135;-85